Time,TemperatureF,DewpointF,PressureIn,WindDirection,WindDirectionDegrees,WindSpeedMPH,WindSpeedGustMPH,Humidity,HourlyPrecipIn,Conditions,Clouds,dailyrainin,SoftwareType,DateUTC
2013-04-12 00:02:00,33.0,19.0,-100.00,WNW,301,7.0,11.0,56,-99.99,,,-99.99,,2013-04-12 06:02:00,
2013-04-12 00:12:00,33.0,20.0,-100.00,NW,306,8.0,12.0,58,-99.99,,,-99.99,,2013-04-12 06:12:00,
2013-04-12 00:22:00,33.0,20.0,-100.00,NW,306,8.0,12.0,58,-99.99,,,-99.99,,2013-04-12 06:22:00,
2013-04-12 00:32:00,33.0,20.0,-100.00,NW,306,8.0,12.0,58,-99.99,,,-99.99,,2013-04-12 06:32:00,
2013-04-12 00:42:00,33.0,21.0,-100.00,NW,310,9.0,13.0,60,-99.99,,,-99.99,,2013-04-12 06:42:00,
2013-04-12 00:52:00,33.0,21.0,-100.00,NW,310,9.0,13.0,60,-99.99,,,-99.99,,2013-04-12 06:52:00,
2013-04-12 01:01:00,33.0,22.0,-100.00,NW,321,8.0,14.0,62,-99.99,,,-99.99,,2013-04-12 07:01:00,
2013-04-12 01:11:00,33.0,22.0,-100.00,NW,320,8.0,12.0,62,-99.99,,,-99.99,,2013-04-12 07:11:00,
2013-04-12 01:22:00,33.0,22.0,-100.00,NW,320,8.0,12.0,62,-99.99,,,-99.99,,2013-04-12 07:22:00,
2013-04-12 01:32:00,33.0,22.0,-100.00,NW,320,8.0,12.0,62,-99.99,,,-99.99,,2013-04-12 07:32:00,
2013-04-12 01:42:00,33.0,22.0,-100.00,NW,319,9.0,14.0,63,-99.99,,,-99.99,,2013-04-12 07:42:00,
2013-04-12 01:52:00,33.0,22.0,-100.00,NW,319,9.0,14.0,63,-99.99,,,-99.99,,2013-04-12 07:52:00,
2013-04-12 02:03:00,33.0,22.0,-100.00,NNW,336,8.0,14.0,62,-99.99,,,-99.99,,2013-04-12 08:03:00,
2013-04-12 02:12:00,33.0,22.0,-100.00,NW,318,6.0,10.0,63,-99.99,,,-99.99,,2013-04-12 08:12:00,
2013-04-12 02:22:00,33.0,22.0,-100.00,NW,318,6.0,10.0,63,-99.99,,,-99.99,,2013-04-12 08:22:00,
2013-04-12 02:32:00,33.0,22.0,-100.00,NW,318,6.0,10.0,63,-99.99,,,-99.99,,2013-04-12 08:32:00,
2013-04-12 02:42:00,33.0,22.0,-100.00,NNW,333,6.0,10.0,64,-99.99,,,-99.99,,2013-04-12 08:42:00,
2013-04-12 02:52:00,33.0,22.0,-100.00,NNW,333,6.0,10.0,64,-99.99,,,-99.99,,2013-04-12 08:52:00,
2013-04-12 03:02:00,33.0,22.0,-100.00,NNW,338,6.0,11.0,64,-99.99,,,-99.99,,2013-04-12 09:02:00,
2013-04-12 03:12:00,32.0,22.0,-100.00,NNW,346,4.0,7.0,65,-99.99,,,-99.99,,2013-04-12 09:12:00,
2013-04-12 03:22:00,32.0,22.0,-100.00,NNW,346,4.0,7.0,65,-99.99,,,-99.99,,2013-04-12 09:22:00,
2013-04-12 03:32:00,32.0,22.0,-100.00,NNW,346,4.0,7.0,65,-99.99,,,-99.99,,2013-04-12 09:32:00,
2013-04-12 03:43:00,32.0,21.0,-100.00,NNW,328,6.0,12.0,64,-99.99,,,-99.99,,2013-04-12 09:43:00,
2013-04-12 03:53:00,32.0,21.0,-100.00,NNW,328,6.0,12.0,64,-99.99,,,-99.99,,2013-04-12 09:53:00,
2013-04-12 04:02:00,32.0,21.0,-100.00,NNW,338,6.0,11.0,64,-99.99,,,-99.99,,2013-04-12 10:02:00,
2013-04-12 04:12:00,32.0,21.0,-100.00,NNW,343,4.0,7.0,65,-99.99,,,-99.99,,2013-04-12 10:12:00,
2013-04-12 04:22:00,32.0,21.0,-100.00,NNW,343,4.0,7.0,65,-99.99,,,-99.99,,2013-04-12 10:22:00,
2013-04-12 04:33:00,32.0,21.0,-100.00,NNW,343,4.0,7.0,65,-99.99,,,-99.99,,2013-04-12 10:33:00,
2013-04-12 04:42:00,31.0,21.0,-100.00,NW,313,4.0,7.0,66,-99.99,,,-99.99,,2013-04-12 10:42:00,
2013-04-12 04:53:00,31.0,21.0,-100.00,NW,313,4.0,7.0,66,-99.99,,,-99.99,,2013-04-12 10:53:00,
2013-04-12 05:02:00,31.0,21.0,-100.00,NNW,331,4.0,8.0,67,-99.99,,,-99.99,,2013-04-12 11:02:00,
2013-04-12 05:12:00,30.0,21.0,-100.00,NNW,327,4.0,8.0,67,-99.99,,,-99.99,,2013-04-12 11:12:00,
2013-04-12 05:22:00,30.0,21.0,-100.00,NNW,327,4.0,8.0,67,-99.99,,,-99.99,,2013-04-12 11:22:00,
2013-04-12 05:32:00,30.0,21.0,-100.00,NNW,327,4.0,8.0,67,-99.99,,,-99.99,,2013-04-12 11:32:00,
2013-04-12 05:42:00,29.0,19.0,-100.00,WNW,294,6.0,10.0,63,-99.99,,,-99.99,,2013-04-12 11:42:00,
2013-04-12 05:52:00,29.0,19.0,-100.00,WNW,294,6.0,10.0,63,-99.99,,,-99.99,,2013-04-12 11:52:00,
2013-04-12 06:02:00,30.0,17.0,-100.00,West,278,3.0,7.0,58,-99.99,,,-99.99,,2013-04-12 12:02:00,
2013-04-12 06:12:00,30.0,18.0,-100.00,NNE,23,2.0,5.0,61,-99.99,,,-99.99,,2013-04-12 12:12:00,
2013-04-12 06:22:00,30.0,18.0,-100.00,NNE,23,2.0,5.0,61,-99.99,,,-99.99,,2013-04-12 12:22:00,
2013-04-12 06:32:00,30.0,18.0,-100.00,NNE,23,2.0,5.0,61,-99.99,,,-99.99,,2013-04-12 12:32:00,
2013-04-12 06:42:00,29.0,18.0,-100.00,WSW,255,3.0,6.0,62,-99.99,,,-99.99,,2013-04-12 12:42:00,
2013-04-12 06:53:00,29.0,18.0,-100.00,WSW,255,3.0,6.0,62,-99.99,,,-99.99,,2013-04-12 12:53:00,
2013-04-12 07:03:00,30.0,16.0,-100.00,NNW,327,4.0,8.0,55,-99.99,,,-99.99,,2013-04-12 13:03:00,
2013-04-12 07:12:00,29.0,18.0,-100.00,NW,305,1.0,5.0,61,-99.99,,,-99.99,,2013-04-12 13:12:00,
2013-04-12 07:22:00,29.0,18.0,-100.00,NW,305,1.0,5.0,61,-99.99,,,-99.99,,2013-04-12 13:22:00,
2013-04-12 07:32:00,29.0,18.0,-100.00,NW,305,1.0,5.0,61,-99.99,,,-99.99,,2013-04-12 13:32:00,
2013-04-12 07:42:00,29.0,16.0,-100.00,West,267,3.0,5.0,57,-99.99,,,-99.99,,2013-04-12 13:42:00,
2013-04-12 07:53:00,29.0,16.0,-100.00,West,267,3.0,5.0,57,-99.99,,,-99.99,,2013-04-12 13:53:00,
2013-04-12 08:03:00,30.0,14.0,-100.00,West,259,4.0,7.0,51,-99.99,,,-99.99,,2013-04-12 14:03:00,
2013-04-12 08:12:00,30.0,15.0,-100.00,WSW,254,6.0,8.0,51,-99.99,,,-99.99,,2013-04-12 14:12:00,
2013-04-12 08:22:00,30.0,15.0,-100.00,WSW,254,6.0,8.0,51,-99.99,,,-99.99,,2013-04-12 14:22:00,
2013-04-12 08:32:00,30.0,15.0,-100.00,WSW,254,6.0,8.0,51,-99.99,,,-99.99,,2013-04-12 14:32:00,
2013-04-12 08:42:00,32.0,15.0,-100.00,North,3,4.0,9.0,50,-99.99,,,-99.99,,2013-04-12 14:42:00,
2013-04-12 08:53:00,32.0,15.0,-100.00,North,3,4.0,9.0,50,-99.99,,,-99.99,,2013-04-12 14:53:00,
2013-04-12 09:02:00,29.0,18.0,-100.00,North,358,3.0,6.0,61,-99.99,,,-99.99,,2013-04-12 15:02:00,
2013-04-12 09:12:00,28.0,19.0,-100.00,West,275,1.0,2.0,67,-99.99,,,-99.99,,2013-04-12 15:12:00,
2013-04-12 09:22:00,28.0,19.0,-100.00,West,275,1.0,2.0,67,-99.99,,,-99.99,,2013-04-12 15:22:00,
2013-04-12 09:33:00,28.0,19.0,-100.00,West,275,1.0,2.0,67,-99.99,,,-99.99,,2013-04-12 15:33:00,
2013-04-12 09:43:00,31.0,20.0,-100.00,SSW,203,2.0,5.0,62,-99.99,,,-99.99,,2013-04-12 15:43:00,
2013-04-12 09:53:00,31.0,20.0,-100.00,SSW,203,2.0,5.0,62,-99.99,,,-99.99,,2013-04-12 15:53:00,
2013-04-12 10:03:00,32.0,20.0,-100.00,SSE,163,2.0,5.0,59,-99.99,,,-99.99,,2013-04-12 16:03:00,
2013-04-12 10:13:00,34.0,19.0,-100.00,SSE,167,1.0,5.0,55,-99.99,,,-99.99,,2013-04-12 16:13:00,
2013-04-12 10:22:00,34.0,19.0,-100.00,SSE,167,1.0,5.0,55,-99.99,,,-99.99,,2013-04-12 16:22:00,
2013-04-12 10:33:00,34.0,19.0,-100.00,SSE,167,1.0,5.0,55,-99.99,,,-99.99,,2013-04-12 16:33:00,
2013-04-12 10:42:00,34.0,24.0,-100.00,NNE,25,3.0,9.0,66,-99.99,,,-99.99,,2013-04-12 16:42:00,
2013-04-12 10:53:00,34.0,24.0,-100.00,NNE,25,3.0,9.0,66,-99.99,,,-99.99,,2013-04-12 16:53:00,
2013-04-12 11:03:00,34.0,24.0,-100.00,North,8,4.0,7.0,65,-99.99,,,-99.99,,2013-04-12 17:03:00,
2013-04-12 11:12:00,34.0,24.0,-100.00,North,3,3.0,5.0,65,-99.99,,,-99.99,,2013-04-12 17:12:00,
2013-04-12 11:22:00,34.0,24.0,-100.00,North,3,3.0,5.0,65,-99.99,,,-99.99,,2013-04-12 17:22:00,
2013-04-12 11:32:00,34.0,24.0,-100.00,North,3,3.0,5.0,65,-99.99,,,-99.99,,2013-04-12 17:32:00,
2013-04-12 11:44:00,35.0,23.0,-100.00,North,5,3.0,6.0,60,-99.99,,,-99.99,,2013-04-12 17:44:00,
2013-04-12 12:02:00,35.0,23.0,-100.00,North,5,3.0,6.0,60,-99.99,,,-99.99,,2013-04-12 18:02:00,
2013-04-12 12:14:00,35.0,23.0,-100.00,NNE,13,4.0,7.0,60,-99.99,,,-99.99,,2013-04-12 18:14:00,
2013-04-12 12:29:00,35.0,23.0,-100.00,NNE,13,4.0,7.0,60,-99.99,,,-99.99,,2013-04-12 18:29:00,
2013-04-12 13:26:00,39.0,24.0,-100.00,North,358,3.0,9.0,53,-99.99,,,-99.99,,2013-04-12 19:26:00,
2013-04-12 13:32:00,39.0,24.0,-100.00,North,358,3.0,9.0,53,-99.99,,,-99.99,,2013-04-12 19:32:00,
2013-04-12 13:42:00,39.0,24.0,-100.00,North,351,4.0,7.0,54,-99.99,,,-99.99,,2013-04-12 19:42:00,
2013-04-12 13:53:00,39.0,24.0,-100.00,North,351,4.0,7.0,54,-99.99,,,-99.99,,2013-04-12 19:53:00,
2013-04-12 14:02:00,41.0,24.0,-100.00,North,356,5.0,10.0,50,-99.99,,,-99.99,,2013-04-12 20:02:00,
2013-04-12 14:12:00,39.0,23.0,-100.00,North,3,5.0,10.0,50,-99.99,,,-99.99,,2013-04-12 20:12:00,
2013-04-12 14:22:00,39.0,23.0,-100.00,North,3,5.0,10.0,50,-99.99,,,-99.99,,2013-04-12 20:22:00,
2013-04-12 14:32:00,39.0,23.0,-100.00,North,3,5.0,10.0,50,-99.99,,,-99.99,,2013-04-12 20:32:00,
2013-04-12 14:42:00,40.0,21.0,-100.00,ENE,59,4.0,10.0,46,-99.99,,,-99.99,,2013-04-12 20:42:00,
2013-04-12 14:52:00,40.0,21.0,-100.00,ENE,59,4.0,10.0,46,-99.99,,,-99.99,,2013-04-12 20:52:00,
2013-04-12 15:02:00,44.0,23.0,-100.00,NNW,342,4.0,8.0,43,-99.99,,,-99.99,,2013-04-12 21:02:00,
2013-04-12 15:11:00,41.0,22.0,-100.00,North,349,2.0,6.0,45,-99.99,,,-99.99,,2013-04-12 21:11:00,
2013-04-12 15:21:00,41.0,22.0,-100.00,North,349,2.0,6.0,45,-99.99,,,-99.99,,2013-04-12 21:21:00,
2013-04-12 15:32:00,41.0,22.0,-100.00,North,349,2.0,6.0,45,-99.99,,,-99.99,,2013-04-12 21:32:00,
2013-04-12 15:42:00,45.0,24.0,-100.00,ESE,118,1.0,6.0,42,-99.99,,,-99.99,,2013-04-12 21:42:00,
2013-04-12 15:53:00,45.0,24.0,-100.00,ESE,118,1.0,6.0,42,-99.99,,,-99.99,,2013-04-12 21:53:00,
2013-04-12 16:02:00,46.0,24.0,-100.00,SSE,154,2.0,5.0,40,-99.99,,,-99.99,,2013-04-12 22:02:00,
2013-04-12 16:12:00,48.0,23.0,-100.00,NNE,28,2.0,7.0,37,-99.99,,,-99.99,,2013-04-12 22:12:00,
2013-04-12 16:22:00,48.0,23.0,-100.00,NNE,28,2.0,7.0,37,-99.99,,,-99.99,,2013-04-12 22:22:00,
2013-04-12 16:32:00,48.0,23.0,-100.00,NNE,28,2.0,7.0,37,-99.99,,,-99.99,,2013-04-12 22:32:00,
2013-04-12 16:42:00,48.0,22.0,-100.00,NNW,337,1.0,5.0,35,-99.99,,,-99.99,,2013-04-12 22:42:00,
2013-04-12 16:52:00,48.0,22.0,-100.00,NNW,337,1.0,5.0,35,-99.99,,,-99.99,,2013-04-12 22:52:00,
2013-04-12 17:03:00,51.0,22.0,-100.00,NE,55,2.0,6.0,32,-99.99,,,-99.99,,2013-04-12 23:03:00,
2013-04-12 17:12:00,48.0,22.0,-100.00,WSW,240,1.0,6.0,35,-99.99,,,-99.99,,2013-04-12 23:12:00,
2013-04-12 17:22:00,48.0,22.0,-100.00,WSW,240,1.0,6.0,35,-99.99,,,-99.99,,2013-04-12 23:22:00,
2013-04-12 17:32:00,48.0,22.0,-100.00,WSW,240,1.0,6.0,35,-99.99,,,-99.99,,2013-04-12 23:32:00,
2013-04-12 17:42:00,50.0,21.0,-100.00,ENE,73,2.0,6.0,31,-99.99,,,-99.99,,2013-04-12 23:42:00,
2013-04-12 17:52:00,50.0,21.0,-100.00,ENE,73,2.0,6.0,31,-99.99,,,-99.99,,2013-04-12 23:52:00,
2013-04-12 18:02:00,50.0,20.0,-100.00,North,2,2.0,5.0,30,-99.99,,,-99.99,,2013-04-13 00:02:00,
2013-04-12 18:12:00,48.0,17.0,-100.00,West,262,4.0,8.0,29,-99.99,,,-99.99,,2013-04-13 00:12:00,
2013-04-12 18:22:00,48.0,17.0,-100.00,West,262,4.0,8.0,29,-99.99,,,-99.99,,2013-04-13 00:22:00,
2013-04-12 18:32:00,48.0,17.0,-100.00,West,262,4.0,8.0,29,-99.99,,,-99.99,,2013-04-13 00:32:00,
2013-04-12 18:42:00,44.0,16.0,-100.00,SSW,210,4.0,10.0,32,-99.99,,,-99.99,,2013-04-13 00:42:00,
2013-04-12 18:52:00,44.0,16.0,-100.00,SSW,210,4.0,10.0,32,-99.99,,,-99.99,,2013-04-13 00:52:00,
2013-04-12 19:02:00,46.0,18.0,-100.00,SSW,202,2.0,7.0,33,-99.99,,,-99.99,,2013-04-13 01:02:00,
2013-04-12 19:12:00,46.0,19.0,-100.00,South,185,2.0,6.0,33,-99.99,,,-99.99,,2013-04-13 01:12:00,
2013-04-12 19:22:00,46.0,19.0,-100.00,South,185,2.0,6.0,33,-99.99,,,-99.99,,2013-04-13 01:22:00,
2013-04-12 19:32:00,46.0,19.0,-100.00,South,185,2.0,6.0,33,-99.99,,,-99.99,,2013-04-13 01:32:00,
2013-04-12 19:42:00,43.0,16.0,-100.00,SSW,204,3.0,6.0,33,-99.99,,,-99.99,,2013-04-13 01:42:00,
2013-04-12 19:52:00,43.0,16.0,-100.00,SSW,204,3.0,6.0,33,-99.99,,,-99.99,,2013-04-13 01:52:00,
2013-04-12 20:02:00,40.0,15.0,-100.00,SSW,204,4.0,9.0,36,-99.99,,,-99.99,,2013-04-13 02:02:00,
2013-04-12 20:12:00,38.0,17.0,-100.00,SSW,196,6.0,8.0,41,-99.99,,,-99.99,,2013-04-13 02:12:00,
2013-04-12 20:22:00,38.0,17.0,-100.00,SSW,196,6.0,8.0,41,-99.99,,,-99.99,,2013-04-13 02:22:00,
2013-04-12 20:32:00,38.0,17.0,-100.00,SSW,196,6.0,8.0,41,-99.99,,,-99.99,,2013-04-13 02:32:00,
2013-04-12 20:42:00,37.0,17.0,-100.00,SSW,199,7.0,11.0,43,-99.99,,,-99.99,,2013-04-13 02:42:00,
2013-04-12 20:53:00,37.0,17.0,-100.00,SSW,199,7.0,11.0,43,-99.99,,,-99.99,,2013-04-13 02:53:00,
2013-04-12 21:02:00,37.0,16.0,-100.00,SSW,204,7.0,10.0,41,-99.99,,,-99.99,,2013-04-13 03:02:00,
2013-04-12 21:12:00,36.0,17.0,-100.00,South,183,5.0,10.0,46,-99.99,,,-99.99,,2013-04-13 03:12:00,
2013-04-12 21:22:00,36.0,17.0,-100.00,South,183,5.0,10.0,46,-99.99,,,-99.99,,2013-04-13 03:22:00,
2013-04-12 21:33:00,36.0,17.0,-100.00,South,183,5.0,10.0,46,-99.99,,,-99.99,,2013-04-13 03:33:00,
2013-04-12 21:42:00,37.0,15.0,-100.00,SSE,149,2.0,5.0,40,-99.99,,,-99.99,,2013-04-13 03:42:00,
2013-04-12 21:53:00,37.0,15.0,-100.00,SSE,149,2.0,5.0,40,-99.99,,,-99.99,,2013-04-13 03:53:00,
2013-04-12 22:02:00,37.0,14.0,-100.00,SSW,197,3.0,4.0,38,-99.99,,,-99.99,,2013-04-13 04:02:00,
2013-04-12 22:12:00,37.0,14.0,-100.00,SSW,196,3.0,4.0,38,-99.99,,,-99.99,,2013-04-13 04:12:00,
2013-04-12 22:22:00,37.0,14.0,-100.00,SSW,196,3.0,4.0,38,-99.99,,,-99.99,,2013-04-13 04:22:00,
2013-04-12 22:32:00,37.0,14.0,-100.00,SSW,196,3.0,4.0,38,-99.99,,,-99.99,,2013-04-13 04:32:00,
2013-04-12 22:42:00,37.0,14.0,-100.00,SSW,198,2.0,3.0,37,-99.99,,,-99.99,,2013-04-13 04:42:00,
2013-04-12 22:53:00,37.0,14.0,-100.00,SSW,198,2.0,3.0,37,-99.99,,,-99.99,,2013-04-13 04:53:00,
2013-04-12 23:02:00,36.0,14.0,-100.00,SSE,167,3.0,8.0,40,-99.99,,,-99.99,,2013-04-13 05:02:00,
2013-04-12 23:12:00,37.0,11.0,-100.00,SSW,213,5.0,12.0,33,-99.99,,,-99.99,,2013-04-13 05:12:00,
2013-04-12 23:22:00,37.0,11.0,-100.00,SSW,213,5.0,12.0,33,-99.99,,,-99.99,,2013-04-13 05:22:00,
2013-04-12 23:31:00,37.0,11.0,-100.00,SSW,213,5.0,12.0,33,-99.99,,,-99.99,,2013-04-13 05:31:00,
2013-04-12 23:42:00,38.0,7.0,-100.00,SW,228,8.0,11.0,26,-99.99,,,-99.99,,2013-04-13 05:42:00,
2013-04-12 23:52:00,38.0,7.0,-100.00,SW,228,8.0,11.0,26,-99.99,,,-99.99,,2013-04-13 05:52:00,